createdAt,value
2023-05-13T00:00:17.245Z,1018.831946
2023-05-13T00:05:17.613Z,1018.818285
2023-05-13T00:10:17.377Z,1018.912568
2023-05-13T00:15:17.214Z,1018.965863
2023-05-13T00:20:17.367Z,1018.904545
2023-05-13T00:25:17.267Z,1018.917371
2023-05-13T00:30:17.617Z,1018.884079
2023-05-13T00:35:17.205Z,1018.905458
2023-05-13T00:40:17.581Z,1018.913338
2023-05-13T00:45:17.318Z,1018.935142
2023-05-13T00:50:17.517Z,1018.954144
2023-05-13T00:55:17.237Z,1018.933732
2023-05-13T01:00:17.196Z,1018.930812
2023-05-13T01:05:17.919Z,1018.945805
2023-05-13T01:10:17.157Z,1018.944894
2023-05-13T01:15:17.165Z,1018.958506
2023-05-13T01:20:17.294Z,1019.042480
2023-05-13T01:25:17.267Z,1019.061766
2023-05-13T01:30:17.477Z,1019.036170
2023-05-13T01:35:17.211Z,1019.006930
2023-05-13T01:40:31.256Z,1019.031257
2023-05-13T01:45:17.265Z,1019.040860
2023-05-13T01:50:17.398Z,1019.003138
2023-05-13T01:55:17.538Z,1019.036055
2023-05-13T02:00:17.580Z,1019.063896
2023-05-13T02:05:17.199Z,1019.034773
2023-05-13T02:10:17.647Z,1019.047678
2023-05-13T02:15:17.508Z,1019.021057
2023-05-13T02:20:17.129Z,1019.029854
2023-05-13T02:25:17.321Z,1019.056625
2023-05-13T02:30:17.367Z,1019.073863
2023-05-13T02:35:17.443Z,1019.109574
2023-05-13T02:40:17.146Z,1019.120970
2023-05-13T02:45:17.549Z,1019.134373
2023-05-13T02:50:17.370Z,1019.206964
2023-05-13T02:55:17.422Z,1019.225984
2023-05-13T03:00:17.655Z,1019.221001
2023-05-13T03:05:17.609Z,1019.204160
2023-05-13T03:10:17.507Z,1019.203858
2023-05-13T03:15:17.260Z,1019.259077
2023-05-13T03:20:17.582Z,1019.277182
2023-05-13T03:25:17.158Z,1019.231977
2023-05-13T03:30:17.375Z,1019.216027
2023-05-13T03:35:17.112Z,1019.214829
2023-05-13T03:40:17.216Z,1019.230501
2023-05-13T03:45:17.113Z,1019.285102
2023-05-13T03:50:17.350Z,1019.259818
2023-05-13T03:55:17.325Z,1019.307607
2023-05-13T04:00:17.127Z,1019.379984
2023-05-13T04:05:17.239Z,1019.455280
2023-05-13T04:10:17.398Z,1019.449651
2023-05-13T04:15:17.241Z,1019.384030
2023-05-13T04:20:17.130Z,1019.418330
2023-05-13T04:25:17.216Z,1019.391389
2023-05-13T04:30:17.101Z,1019.402988
2023-05-13T04:35:17.116Z,1019.492011
2023-05-13T04:40:17.242Z,1019.522028
2023-05-13T04:45:17.149Z,1019.622120
2023-05-13T04:50:17.266Z,1019.613180
2023-05-13T04:55:17.243Z,1019.682701
2023-05-13T05:00:17.251Z,1019.651412
2023-05-13T05:05:18.477Z,1019.685998
2023-05-13T05:10:17.411Z,1019.707166
2023-05-13T05:15:17.152Z,1019.725101
2023-05-13T05:20:17.282Z,1019.788749
2023-05-13T05:25:17.219Z,1019.729642
2023-05-13T05:30:17.101Z,1019.715370
2023-05-13T05:35:17.237Z,1019.755059
2023-05-13T05:40:17.161Z,1019.697326
2023-05-13T05:45:17.644Z,1019.715412
2023-05-13T05:50:17.071Z,1019.767040
2023-05-13T05:55:17.235Z,1019.746520
2023-05-13T06:00:17.135Z,1019.698796
2023-05-13T06:05:17.345Z,1019.712442
2023-05-13T06:10:17.231Z,1019.664488
2023-05-13T06:15:17.021Z,1019.612028
2023-05-13T06:20:17.319Z,1019.584151
2023-05-13T06:25:17.139Z,1019.569994
2023-05-13T06:30:17.322Z,1019.582229
2023-05-13T06:35:17.113Z,1019.567263
2023-05-13T06:40:17.147Z,1019.523278
2023-05-13T06:45:17.363Z,1019.491619
2023-05-13T06:50:17.154Z,1019.458636
2023-05-13T06:55:17.148Z,1019.419817
2023-05-13T07:00:17.248Z,1019.441738
2023-05-13T07:05:17.255Z,1019.387923
2023-05-13T07:10:17.192Z,1019.320666
2023-05-13T07:15:17.607Z,1019.234367
2023-05-13T07:20:17.197Z,1019.190425
2023-05-13T07:25:17.045Z,1019.180817
2023-05-13T07:30:17.377Z,1019.130007
2023-05-13T07:35:17.464Z,1019.133968
2023-05-13T07:40:17.183Z,1019.143978
2023-05-13T07:45:17.271Z,1019.067076
2023-05-13T07:50:17.076Z,1019.002129
2023-05-13T07:55:17.270Z,1018.956895
2023-05-13T08:00:17.103Z,1018.929932
2023-05-13T08:05:17.075Z,1018.909483
2023-05-13T08:10:17.222Z,1018.823357
2023-05-13T08:15:17.106Z,1018.790952
2023-05-13T08:20:17.203Z,1018.809432
2023-05-13T08:25:17.375Z,1018.801830
2023-05-13T08:30:17.260Z,1018.821385
2023-05-13T08:35:17.156Z,1018.796869
2023-05-13T08:40:17.167Z,1018.744257
2023-05-13T08:45:17.265Z,1018.761171
2023-05-13T08:50:17.154Z,1018.681559
2023-05-13T08:55:17.075Z,1018.711888
2023-05-13T09:00:18.475Z,1018.733798
2023-05-13T09:05:17.288Z,1018.717511
2023-05-13T09:10:17.104Z,1018.698442
2023-05-13T09:15:17.010Z,1018.708219
2023-05-13T09:20:17.052Z,1018.721339
2023-05-13T09:25:17.291Z,1018.709643
2023-05-13T09:30:17.053Z,1018.683014
2023-05-13T09:35:17.073Z,1018.725248
2023-05-13T09:40:17.068Z,1018.725405
2023-05-13T09:45:17.109Z,1018.712863
2023-05-13T09:50:17.597Z,1018.782615
2023-05-13T09:55:21.200Z,1018.698287
2023-05-13T10:00:31.813Z,1018.635214
2023-05-13T10:05:17.528Z,1018.668450
2023-05-13T10:10:17.402Z,1018.524435
2023-05-13T10:15:17.287Z,1018.572875
2023-05-13T10:20:17.224Z,1018.576462
2023-05-13T10:25:17.150Z,1018.564155
2023-05-13T10:30:17.466Z,1018.635267
2023-05-13T10:35:17.257Z,1018.564178
2023-05-13T10:40:17.265Z,1018.540043
2023-05-13T10:45:22.087Z,1018.546464
2023-05-13T10:50:17.209Z,1018.524259
2023-05-13T10:55:17.114Z,1018.541204
2023-05-13T11:00:17.304Z,1018.534996
2023-05-13T11:05:17.116Z,1018.607925
2023-05-13T11:10:17.238Z,1018.543827
2023-05-13T11:15:17.205Z,1018.510066
2023-05-13T11:20:17.715Z,1018.593400
2023-05-13T11:25:17.332Z,1018.613158
2023-05-13T11:30:17.018Z,1018.576063
2023-05-13T11:35:17.322Z,1018.547960
2023-05-13T11:40:17.313Z,1018.525528
2023-05-13T11:45:16.988Z,1018.582510
2023-05-13T11:50:17.601Z,1018.595745
2023-05-13T11:55:17.094Z,1018.652640
2023-05-13T12:00:17.144Z,1018.670872
2023-05-13T12:05:17.011Z,1018.700111
2023-05-13T12:10:17.332Z,1018.803090
2023-05-13T12:15:16.932Z,1018.856877
2023-05-13T12:20:17.124Z,1018.844314
2023-05-13T12:25:17.196Z,1018.858746
2023-05-13T12:30:17.085Z,1018.986221
2023-05-13T12:35:17.288Z,1018.977754
2023-05-13T12:40:17.290Z,1018.957819
2023-05-13T12:45:17.049Z,1019.087917
2023-05-13T12:50:16.888Z,1019.113100
2023-05-13T12:55:17.225Z,1019.152628
2023-05-13T13:00:16.989Z,1019.160831
2023-05-13T13:05:17.011Z,1019.162456
2023-05-13T13:10:16.869Z,1019.137738
2023-05-13T13:15:16.935Z,1019.206207
2023-05-13T13:20:17.176Z,1019.204634
2023-05-13T13:25:17.278Z,1019.237407
2023-05-13T13:30:16.976Z,1019.206652
2023-05-13T13:35:16.894Z,1019.233007
2023-05-13T13:40:17.157Z,1019.270236
2023-05-13T13:45:17.002Z,1019.301360
2023-05-13T13:50:16.959Z,1019.249529
2023-05-13T13:55:17.073Z,1019.245335
2023-05-13T14:00:17.108Z,1019.237046
2023-05-13T14:05:16.972Z,1019.254651
2023-05-13T14:10:17.243Z,1019.273279
2023-05-13T14:15:17.226Z,1019.215563
2023-05-13T14:20:16.926Z,1019.110751
2023-05-13T14:25:16.895Z,1019.072406
2023-05-13T14:30:16.916Z,1019.101399
2023-05-13T14:35:16.920Z,1019.199251
2023-05-13T14:40:16.950Z,1019.256814
2023-05-13T14:45:18.495Z,1019.297323
2023-05-13T14:50:17.094Z,1019.330278
2023-05-13T14:55:17.092Z,1019.257056
2023-05-13T15:00:17.409Z,1019.242788
2023-05-13T15:05:16.985Z,1019.226950
2023-05-13T15:10:16.862Z,1019.231313
2023-05-13T15:15:16.901Z,1019.212588
2023-05-13T15:20:16.891Z,1019.190409
2023-05-13T15:25:17.128Z,1019.145201
2023-05-13T15:30:16.903Z,1019.139195
2023-05-13T15:35:16.929Z,1019.140886
2023-05-13T15:40:17.308Z,1019.147053
2023-05-13T15:45:16.867Z,1019.128102
2023-05-13T15:50:16.885Z,1019.099401
2023-05-13T15:55:17.005Z,1019.098621
2023-05-13T16:00:16.839Z,1019.099746
2023-05-13T16:05:16.959Z,1019.046115
2023-05-13T16:10:17.089Z,1019.051578
2023-05-13T16:15:16.986Z,1019.047338
2023-05-13T16:20:22.462Z,1019.025434
2023-05-13T16:25:17.531Z,1019.020104
2023-05-13T16:30:16.805Z,1018.999000
2023-05-13T16:35:17.346Z,1018.968977
2023-05-13T16:40:17.122Z,1018.928992
2023-05-13T16:45:17.232Z,1018.915255
2023-05-13T16:50:17.055Z,1018.890048
2023-05-13T16:55:17.021Z,1018.920849
2023-05-13T17:00:17.059Z,1018.935063
2023-05-13T17:05:17.283Z,1018.933060
2023-05-13T17:10:17.162Z,1018.890643
2023-05-13T17:15:17.113Z,1018.923513
2023-05-13T17:20:16.791Z,1018.925642
2023-05-13T17:25:17.200Z,1018.927397
2023-05-13T17:30:16.915Z,1018.889822
2023-05-13T17:35:16.875Z,1018.912212
2023-05-13T17:40:17.177Z,1018.931432
2023-05-13T17:45:17.175Z,1019.000053
2023-05-13T17:50:16.867Z,1018.983221
2023-05-13T17:55:16.862Z,1018.976804
2023-05-13T18:00:17.133Z,1018.988802
2023-05-13T18:05:16.932Z,1019.027460
2023-05-13T18:10:16.815Z,1019.063053
2023-05-13T18:15:16.893Z,1019.076657
2023-05-13T18:20:16.765Z,1019.064826
2023-05-13T18:25:17.262Z,1019.052217
2023-05-13T18:30:16.891Z,1019.065705
2023-05-13T18:35:16.840Z,1019.098654
2023-05-13T18:40:16.790Z,1019.124731
2023-05-13T18:45:16.856Z,1019.160082
2023-05-13T18:50:17.019Z,1019.246064
2023-05-13T18:55:16.933Z,1019.279419
2023-05-13T19:00:17.261Z,1019.268789
2023-05-13T19:05:18.430Z,1019.281139
2023-05-13T19:10:17.330Z,1019.290086
2023-05-13T19:15:16.823Z,1019.357690
2023-05-13T19:20:16.954Z,1019.458399
2023-05-13T19:25:16.990Z,1019.487881
2023-05-13T19:30:17.157Z,1019.517024
2023-05-13T19:35:16.757Z,1019.567517
2023-05-13T19:40:17.029Z,1019.584972
2023-05-13T19:45:17.048Z,1019.595401
2023-05-13T19:50:17.168Z,1019.577688
2023-05-13T19:55:16.756Z,1019.572504
2023-05-13T20:00:16.886Z,1019.569973
2023-05-13T20:05:17.051Z,1019.638849
2023-05-13T20:10:17.054Z,1019.665036
2023-05-13T20:15:18.459Z,1019.652172
2023-05-13T20:20:16.933Z,1019.699545
2023-05-13T20:25:17.080Z,1019.695537
2023-05-13T20:30:17.112Z,1019.670830
2023-05-13T20:35:16.750Z,1019.653500
2023-05-13T20:40:16.883Z,1019.699301
2023-05-13T20:45:17.003Z,1019.744009
2023-05-13T20:50:16.776Z,1019.756333
2023-05-13T20:55:17.487Z,1019.767048
2023-05-13T21:00:16.760Z,1019.742074
2023-05-13T21:05:16.809Z,1019.721324
2023-05-13T21:10:17.268Z,1019.751866
2023-05-13T21:15:16.763Z,1019.747014
2023-05-13T21:20:16.823Z,1019.739698
2023-05-13T21:25:16.790Z,1019.691270
2023-05-13T21:30:16.932Z,1019.718667
2023-05-13T21:35:16.742Z,1019.717539
2023-05-13T21:40:16.772Z,1019.740484
2023-05-13T21:45:16.697Z,1019.717438
2023-05-13T21:50:16.896Z,1019.678135
2023-05-13T21:55:16.715Z,1019.643567
2023-05-13T22:00:17.976Z,1019.656943
2023-05-13T22:05:16.786Z,1019.646589
2023-05-13T22:10:17.207Z,1019.649329
2023-05-13T22:15:16.718Z,1019.621993
2023-05-13T22:20:16.657Z,1019.588210
2023-05-13T22:25:17.695Z,1019.598153
2023-05-13T22:30:17.188Z,1019.594550
2023-05-13T22:35:16.952Z,1019.554702
2023-05-13T22:40:17.131Z,1019.545200
2023-05-13T22:45:16.805Z,1019.540810
2023-05-13T22:50:16.640Z,1019.479560
2023-05-13T22:55:17.372Z,1019.461556
2023-05-13T23:00:16.717Z,1019.443732
2023-05-13T23:05:16.888Z,1019.411300
2023-05-13T23:10:16.715Z,1019.383007
2023-05-13T23:15:16.751Z,1019.335776
2023-05-13T23:20:17.447Z,1019.280387
2023-05-13T23:25:17.853Z,1019.254916
2023-05-13T23:30:17.021Z,1019.239143
2023-05-13T23:35:16.801Z,1019.222444
2023-05-13T23:40:16.834Z,1019.215899
2023-05-13T23:45:16.719Z,1019.173787
2023-05-13T23:50:16.720Z,1019.144783
2023-05-13T23:55:16.876Z,1019.072740
